Time;durP1;ratioP1;P1;durP2;ratioP2;P2;SDS_P1;SDS_P2;PMS_P1;PMS_P2;Temp;Humidity;BMP_temperature;BMP_pressure;BME280_temperature;BME280_humidity;BME280_pressure;Samples;Min_cycle;Max_cycle;Signal;HPM_P1;HPM_P2
2022/04/13 00:00:15;;;;;;;4.35;2.85;;;;;;;7.19;100.00;92792.56;2109438;28;20393;-84
2022/04/13 00:01:16;;;;;;;3.67;2.83;;;;;;;7.20;100.00;92785.34;2102751;28;21447;-84
2022/04/13 00:02:17;;;;;;;4.38;3.10;;;;;;;7.18;100.00;92783.09;2102012;28;20058;-83
2022/04/13 00:03:18;;;;;;;5.07;3.13;;;;;;;7.13;100.00;92788.13;2104914;28;20058;-82
2022/04/13 00:04:20;;;;;;;3.00;2.65;;;;;;;7.13;100.00;92785.47;2107440;28;20023;-84
2022/04/13 00:05:21;;;;;;;4.68;2.88;;;;;;;7.18;100.00;92790.31;2095637;28;20031;-81
2022/04/13 00:06:22;;;;;;;6.35;3.28;;;;;;;7.21;100.00;92784.97;2094854;28;20021;-84
2022/04/13 00:07:23;;;;;;;5.30;3.30;;;;;;;7.15;100.00;92791.09;2109326;28;20024;-84
2022/04/13 00:08:24;;;;;;;4.80;3.03;;;;;;;7.20;100.00;92782.69;2111990;27;20046;-81
2022/04/13 00:09:25;;;;;;;4.57;2.97;;;;;;;7.28;100.00;92787.50;2107456;28;20020;-83
2022/04/13 00:10:26;;;;;;;5.93;2.78;;;;;;;7.32;100.00;92782.88;2106930;28;20136;-85
2022/04/13 00:11:27;;;;;;;6.05;3.03;;;;;;;7.32;100.00;92796.16;2108885;28;20400;-84
2022/04/13 00:12:28;;;;;;;6.22;3.25;;;;;;;7.34;100.00;92782.50;2115740;27;20074;-84
2022/04/13 00:13:29;;;;;;;6.63;2.95;;;;;;;7.35;100.00;92781.34;2097297;28;20484;-84
2022/04/13 00:14:31;;;;;;;4.75;3.05;;;;;;;7.37;100.00;92781.66;2097832;28;20483;-83
2022/04/13 00:15:32;;;;;;;3.38;2.58;;;;;;;7.26;100.00;92781.09;2105345;27;20103;-83
2022/04/13 00:16:33;;;;;;;5.28;2.70;;;;;;;7.24;100.00;92786.03;2106151;28;20433;-82
2022/04/13 00:17:37;;;;;;;9.60;2.90;;;;;;;7.21;100.00;92797.50;2114552;28;20031;-83
2022/04/13 00:18:38;;;;;;;5.72;2.85;;;;;;;7.22;100.00;92783.78;2114402;28;20561;-86
2022/04/13 00:19:39;;;;;;;3.38;2.45;;;;;;;7.19;100.00;92786.50;2108635;28;20034;-85
2022/04/13 00:20:40;;;;;;;4.13;2.53;;;;;;;7.21;100.00;92784.22;2106236;28;20023;-84
2022/04/13 00:21:41;;;;;;;4.18;2.40;;;;;;;7.23;100.00;92781.88;2106257;28;20028;-84
2022/04/13 00:22:42;;;;;;;4.85;2.38;;;;;;;7.18;100.00;92777.78;2096769;28;20396;-82
2022/04/13 00:23:43;;;;;;;6.35;2.85;;;;;;;7.16;100.00;92788.06;2101747;28;20027;-84
2022/04/13 00:24:52;;;;;;;4.60;2.88;;;;;;;7.09;100.00;92787.41;2105847;28;20498;-82
2022/04/13 00:25:53;;;;;;;4.88;2.53;;;;;;;7.09;100.00;92782.84;2105082;28;20036;-82
2022/04/13 00:26:55;;;;;;;4.38;2.65;;;;;;;7.13;100.00;92783.56;2106325;28;20016;-85
2022/04/13 00:27:56;;;;;;;4.90;2.40;;;;;;;7.10;100.00;92781.69;2100244;28;20024;-83
2022/04/13 00:28:57;;;;;;;2.70;2.30;;;;;;;7.12;100.00;92778.66;2105428;28;20061;-83
2022/04/13 00:29:58;;;;;;;3.75;2.58;;;;;;;7.17;100.00;92791.47;2104703;28;20028;-84
2022/04/13 00:30:59;;;;;;;4.35;2.83;;;;;;;7.19;100.00;92781.94;2104392;28;20434;-83
2022/04/13 00:32:01;;;;;;;4.30;2.70;;;;;;;7.24;100.00;92783.38;2105073;28;20020;-83
2022/04/13 00:33:02;;;;;;;4.72;2.42;;;;;;;7.25;100.00;92783.00;2105471;28;20031;-86
2022/04/13 00:34:03;;;;;;;5.43;2.22;;;;;;;7.39;100.00;92782.03;2097785;28;20060;-83
2022/04/13 00:35:04;;;;;;;3.55;2.17;;;;;;;7.30;100.00;92790.53;2114357;27;20023;-82
2022/04/13 00:36:05;;;;;;;4.88;2.35;;;;;;;7.21;100.00;92786.88;2113689;27;20031;-85
2022/04/13 00:37:07;;;;;;;5.75;2.22;;;;;;;7.22;100.00;92791.78;2105826;28;20028;-83
2022/04/13 00:38:08;;;;;;;6.05;2.58;;;;;;;7.22;100.00;92783.78;2104855;28;20020;-84
2022/04/13 00:39:09;;;;;;;4.60;2.85;;;;;;;7.18;100.00;92780.44;2105388;28;20012;-82
2022/04/13 00:40:11;;;;;;;3.08;2.53;;;;;;;7.13;100.00;92788.88;2100561;28;20020;-82
2022/04/13 00:41:13;;;;;;;4.38;2.22;;;;;;;7.16;100.00;92790.72;2105378;28;20024;-84
2022/04/13 00:42:15;;;;;;;2.47;2.15;;;;;;;7.24;100.00;92781.50;2105633;28;20384;-82
2022/04/13 00:43:16;;;;;;;6.53;2.30;;;;;;;7.20;100.00;92794.09;2096693;28;20031;-84
2022/04/13 00:44:17;;;;;;;3.80;2.35;;;;;;;7.19;100.00;92787.25;2095524;28;20125;-83
2022/04/13 00:45:18;;;;;;;3.42;2.58;;;;;;;7.17;100.00;92791.47;2105152;28;20020;-82
2022/04/13 00:46:19;;;;;;;2.65;2.35;;;;;;;7.01;100.00;92789.41;2112781;28;20020;-83
2022/04/13 00:47:20;;;;;;;4.43;2.75;;;;;;;7.02;100.00;92790.91;2103869;28;20024;-84
2022/04/13 00:48:40;;;;;;;3.05;2.30;;;;;;;7.05;100.00;92785.53;2095803;28;20020;-82
2022/04/13 00:49:42;;;;;;;6.25;2.60;;;;;;;7.05;100.00;92790.84;2100717;28;20783;-84
2022/04/13 00:50:43;;;;;;;4.88;2.33;;;;;;;7.04;100.00;92794.69;2098028;28;20046;-84
2022/04/13 00:51:44;;;;;;;5.00;2.65;;;;;;;7.05;100.00;92798.09;2099667;28;20529;-84
2022/04/13 00:52:47;;;;;;;3.78;2.50;;;;;;;7.08;100.00;92786.66;2104916;28;20477;-83
2022/04/13 00:53:50;;;;;;;3.40;2.30;;;;;;;7.14;100.00;92800.25;2106211;28;20024;-83
2022/04/13 00:54:54;;;;;;;3.17;2.35;;;;;;;7.12;100.00;92794.59;2098270;28;20028;-83
2022/04/13 00:55:57;;;;;;;3.72;2.65;;;;;;;7.09;100.00;92798.03;2098395;28;20551;-84
2022/04/13 00:57:00;;;;;;;2.72;2.13;;;;;;;7.13;100.00;92796.09;2099902;28;20032;-81
2022/04/13 00:58:03;;;;;;;4.80;2.35;;;;;;;7.05;100.00;92785.53;2098378;28;20574;-83
2022/04/13 00:59:07;;;;;;;3.60;2.53;;;;;;;6.99;100.00;92794.38;2114806;27;20427;-84
2022/04/13 01:00:12;;;;;;;4.55;2.67;;;;;;;6.94;100.00;92795.59;2105620;28;20126;-83
2022/04/13 01:01:15;;;;;;;4.43;2.42;;;;;;;6.84;100.00;92798.38;2097943;28;20082;-83
2022/04/13 01:02:18;;;;;;;3.85;2.35;;;;;;;6.91;100.00;92796.38;2097780;28;20393;-84
2022/04/13 01:03:23;;;;;;;7.47;3.03;;;;;;;7.07;100.00;92795.78;2105936;28;20050;-83
2022/04/13 01:04:30;;;;;;;4.43;3.10;;;;;;;7.11;100.00;92793.06;2104670;28;20020;-84
2022/04/13 01:05:36;;;;;;;3.65;2.13;;;;;;;7.04;100.00;92797.34;2105463;28;20020;-82
2022/04/13 01:06:38;;;;;;;4.18;2.80;;;;;;;6.98;100.00;92793.63;2097950;28;20609;-84
2022/04/13 01:07:40;;;;;;;3.33;2.67;;;;;;;6.94;100.00;92800.91;2113341;28;20129;-81
2022/04/13 01:08:43;;;;;;;3.83;2.35;;;;;;;6.95;100.00;92804.31;2101117;27;20477;-83
2022/04/13 01:09:44;;;;;;;3.17;2.35;;;;;;;6.98;100.00;92793.63;2101241;28;20131;-83
2022/04/13 01:10:47;;;;;;;4.28;2.60;;;;;;;6.95;100.00;92799.75;2104076;28;20094;-84
2022/04/13 01:11:48;;;;;;;6.25;2.90;;;;;;;6.94;100.00;92805.47;2097551;28;20466;-83
2022/04/13 01:12:49;;;;;;;3.40;2.47;;;;;;;6.93;100.00;92807.34;2096712;28;20094;-82
2022/04/13 01:13:53;;;;;;;3.70;2.40;;;;;;;6.92;100.00;92813.06;2092820;28;20028;-85
2022/04/13 01:14:54;;;;;;;2.83;2.20;;;;;;;6.82;100.00;92802.19;2093097;28;20024;-83
2022/04/13 01:15:55;;;;;;;3.70;2.47;;;;;;;6.80;100.00;92804.50;2095635;28;20465;-83
2022/04/13 01:16:57;;;;;;;4.07;2.50;;;;;;;6.82;100.00;92807.50;2101106;28;20043;-81
2022/04/13 01:17:58;;;;;;;3.53;2.50;;;;;;;6.83;100.00;92813.56;2104787;28;20115;-87
2022/04/13 01:18:59;;;;;;;3.65;2.55;;;;;;;6.88;100.00;92813.09;2105670;28;20051;-85
2022/04/13 01:20:05;;;;;;;4.28;2.33;;;;;;;6.80;100.00;92812.47;2100398;28;20031;-84
2022/04/13 01:21:10;;;;;;;6.03;2.47;;;;;;;6.73;100.00;92817.84;2106434;28;20031;-83
2022/04/13 01:22:24;;;;;;;3.33;2.35;;;;;;;6.66;100.00;92809.97;2106665;27;20403;-85
2022/04/13 01:23:25;;;;;;;3.97;2.50;;;;;;;6.79;100.00;92810.94;2106974;28;20020;-85
2022/04/13 01:24:26;;;;;;;4.93;2.40;;;;;;;6.86;100.00;92812.00;2099073;28;20086;-81
2022/04/13 01:25:30;;;;;;;4.10;2.20;;;;;;;6.87;100.00;92814.25;2097785;28;20028;-84
2022/04/13 01:26:32;;;;;;;4.60;2.20;;;;;;;6.84;100.00;92806.34;2105781;27;20534;-83
2022/04/13 01:27:33;;;;;;;4.40;2.50;;;;;;;6.78;100.00;92814.75;2105742;28;20496;-83
2022/04/13 01:28:34;;;;;;;4.93;2.28;;;;;;;6.82;100.00;92812.81;2105463;28;20035;-83
2022/04/13 01:29:35;;;;;;;3.47;2.60;;;;;;;6.78;100.00;92811.34;2105673;28;20020;-82
2022/04/13 01:30:36;;;;;;;3.92;2.30;;;;;;;6.76;100.00;92803.78;2113927;28;20031;-82
2022/04/13 01:31:37;;;;;;;4.50;2.40;;;;;;;6.78;100.00;92804.13;2097156;28;20439;-84
2022/04/13 01:32:38;;;;;;;3.53;2.25;;;;;;;6.65;100.00;92807.72;2100748;28;20024;-85
2022/04/13 01:33:40;;;;;;;3.60;2.40;;;;;;;6.63;100.00;92815.31;2099847;28;20016;-83
2022/04/13 01:34:49;;;;;;;3.40;2.40;;;;;;;6.65;100.00;92810.38;2096611;28;20016;-84
2022/04/13 01:35:50;;;;;;;3.10;2.20;;;;;;;6.58;100.00;92811.19;2104597;28;20504;-83
2022/04/13 01:36:51;;;;;;;3.47;2.10;;;;;;;6.50;100.00;92809.78;2099705;28;20401;-83
2022/04/13 01:37:52;;;;;;;2.70;2.42;;;;;;;6.53;100.00;92807.06;2105622;28;20032;-85
2022/04/13 01:38:53;;;;;;;3.03;2.28;;;;;;;6.51;100.00;92811.28;2113834;28;20504;-85
2022/04/13 01:39:54;;;;;;;2.72;2.05;;;;;;;6.45;100.00;92816.28;2113965;28;20096;-84
2022/04/13 01:40:55;;;;;;;5.78;2.72;;;;;;;6.51;100.00;92820.00;2105567;28;20016;-84
2022/04/13 01:41:56;;;;;;;2.10;1.85;;;;;;;6.50;100.00;92820.41;2103964;28;20020;-84
2022/04/13 01:42:57;;;;;;;4.55;2.38;;;;;;;6.48;100.00;92825.34;2097264;28;20090;-81
2022/04/13 01:43:58;;;;;;;5.20;2.25;;;;;;;6.57;100.00;92817.66;2099433;28;20023;-83
2022/04/13 01:44:59;;;;;;;3.17;2.30;;;;;;;6.41;100.00;92818.22;2102967;28;20643;-82
2022/04/13 01:46:00;;;;;;;5.10;2.30;;;;;;;6.42;100.00;92824.28;2105936;28;20362;-83
2022/04/13 01:47:28;;;;;;;3.65;2.28;;;;;;;6.42;100.00;92814.41;2097095;28;20055;-82
2022/04/13 01:48:31;;;;;;;2.72;2.28;;;;;;;6.42;100.00;92814.41;2103734;28;20043;-83
2022/04/13 01:49:32;;;;;;;3.90;2.20;;;;;;;6.46;100.00;92817.03;2097561;28;20063;-83
2022/04/13 01:50:33;;;;;;;3.08;2.20;;;;;;;6.50;100.00;92818.50;2105325;28;20055;-82
2022/04/13 01:51:34;;;;;;;4.22;2.00;;;;;;;6.61;100.00;92815.72;2108665;28;20087;-83
2022/04/13 01:52:35;;;;;;;3.08;2.22;;;;;;;6.55;100.00;92815.41;2112596;28;20458;-83
2022/04/13 01:53:42;;;;;;;3.17;2.30;;;;;;;6.49;100.00;92814.31;2113733;28;20813;-82
2022/04/13 01:54:50;;;;;;;3.35;2.15;;;;;;;6.38;100.00;92818.25;2113665;28;20042;-81
2022/04/13 01:55:58;;;;;;;2.20;2.00;;;;;;;6.39;100.00;92815.19;2103398;28;20157;-84
2022/04/13 01:56:59;;;;;;;3.78;2.20;;;;;;;6.48;100.00;92815.47;2105320;28;20020;-82
2022/04/13 01:58:00;;;;;;;3.50;2.38;;;;;;;6.39;100.00;92817.84;2105588;28;20031;-83
2022/04/13 01:59:01;;;;;;;2.45;2.13;;;;;;;6.40;100.00;92818.59;2113821;28;20019;-83
2022/04/13 02:00:06;;;;;;;4.97;2.20;;;;;;;6.52;100.00;92818.09;2105164;28;20027;-82
2022/04/13 02:01:07;;;;;;;4.00;2.50;;;;;;;6.43;100.00;92817.81;2097564;28;20500;-83
2022/04/13 02:02:08;;;;;;;2.30;2.10;;;;;;;6.34;100.00;92823.59;2095824;28;20029;-81
2022/04/13 02:03:09;;;;;;;3.35;2.33;;;;;;;6.34;100.00;92820.19;2109962;28;20027;-84
2022/04/13 02:04:20;;;;;;;4.82;2.10;;;;;;;6.36;100.00;92820.53;2103134;28;20040;-80
2022/04/13 02:05:21;;;;;;;3.10;2.00;;;;;;;6.28;100.00;92828.59;2099959;28;20820;-82
2022/04/13 02:06:22;;;;;;;4.00;2.40;;;;;;;6.31;100.00;92824.38;2095131;28;20650;-81
2022/04/13 02:07:23;;;;;;;2.53;2.13;;;;;;;6.30;100.00;92820.22;2105662;28;20031;-84
2022/04/13 02:08:26;;;;;;;6.93;2.50;;;;;;;6.26;100.00;92816.84;2093121;28;20016;-84
2022/04/13 02:09:27;;;;;;;2.97;2.13;;;;;;;6.39;100.00;92815.19;2099616;28;20024;-82
2022/04/13 02:10:28;;;;;;;3.33;2.53;;;;;;;6.43;100.00;92813.25;2097339;28;20024;-84
2022/04/13 02:11:29;;;;;;;3.30;2.35;;;;;;;6.46;100.00;92809.06;2095889;28;20028;-82
2022/04/13 02:12:32;;;;;;;2.92;1.85;;;;;;;6.39;100.00;92809.88;2097278;28;20435;-84
2022/04/13 02:13:33;;;;;;;3.38;2.25;;;;;;;6.37;100.00;92814.09;2117779;27;20015;-82
2022/04/13 02:14:34;;;;;;;3.00;1.92;;;;;;;6.55;100.00;92812.75;2114096;27;20506;-85
2022/04/13 02:15:35;;;;;;;3.97;2.00;;;;;;;6.50;100.00;92815.84;2111452;28;20031;-83
2022/04/13 02:16:36;;;;;;;4.18;2.35;;;;;;;6.47;100.00;92806.00;2097176;28;20017;-84
2022/04/13 02:17:38;;;;;;;2.35;2.05;;;;;;;6.41;100.00;92812.13;2107342;28;20020;-84
2022/04/13 02:18:46;;;;;;;3.08;2.47;;;;;;;6.46;100.00;92815.13;2105901;28;20054;-82
2022/04/13 02:19:47;;;;;;;3.00;2.45;;;;;;;6.45;100.00;92810.97;2100082;28;20029;-82
2022/04/13 02:20:48;;;;;;;2.80;2.10;;;;;;;6.36;100.00;92810.69;2101219;28;20024;-84
2022/04/13 02:21:49;;;;;;;3.15;2.17;;;;;;;6.29;100.00;92811.53;2107562;28;20377;-85
2022/04/13 02:22:50;;;;;;;3.65;2.08;;;;;;;6.22;100.00;92818.78;2107215;28;20031;-82
2022/04/13 02:23:51;;;;;;;4.10;2.00;;;;;;;6.23;100.00;92815.00;2109455;28;20611;-80
2022/04/13 02:24:52;;;;;;;3.95;2.20;;;;;;;6.27;100.00;92813.81;2111317;28;20094;-81
2022/04/13 02:25:53;;;;;;;3.63;2.22;;;;;;;6.28;100.00;92819.88;2099120;28;20111;-83
2022/04/13 02:26:53;;;;;;;3.45;2.00;;;;;;;6.25;100.00;92816.09;2101108;28;20024;-82
2022/04/13 02:27:54;;;;;;;4.18;2.10;;;;;;;6.19;100.00;92816.91;2105805;28;20103;-83
2022/04/13 02:28:57;;;;;;;4.53;2.30;;;;;;;6.12;100.00;92812.44;2107644;28;20027;-81
2022/04/13 02:29:58;;;;;;;4.93;2.30;;;;;;;6.14;100.00;92818.09;2107142;28;20062;-85
2022/04/13 02:30:59;;;;;;;4.90;2.47;;;;;;;6.16;100.00;92801.81;2112411;28;20570;-85
2022/04/13 02:32:01;;;;;;;2.58;2.30;;;;;;;6.19;100.00;92814.25;2107506;28;20062;-84
2022/04/13 02:33:02;;;;;;;4.05;2.40;;;;;;;6.09;100.00;92809.81;2100899;28;20028;-83
2022/04/13 02:34:04;;;;;;;3.05;1.98;;;;;;;6.04;100.00;92809.09;2105075;28;20031;-83
2022/04/13 02:35:06;;;;;;;3.15;2.08;;;;;;;6.13;100.00;92808.66;2114234;28;20480;-84
2022/04/13 02:36:07;;;;;;;5.70;2.22;;;;;;;6.14;100.00;92814.69;2115225;27;20476;-82
2022/04/13 02:37:10;;;;;;;4.93;2.03;;;;;;;6.01;100.00;92814.44;2117956;28;20051;-84
2022/04/13 02:38:11;;;;;;;2.53;1.92;;;;;;;6.02;100.00;92814.06;2101789;28;20100;-85
2022/04/13 02:39:14;;;;;;;2.65;2.13;;;;;;;6.08;100.00;92811.72;2116154;28;20472;-82
2022/04/13 02:40:16;;;;;;;3.92;2.00;;;;;;;6.08;100.00;92813.63;2122137;27;20029;-83
2022/04/13 02:41:17;;;;;;;3.72;2.20;;;;;;;6.04;100.00;92811.75;2114723;28;20102;-82
2022/04/13 02:42:18;;;;;;;3.33;2.30;;;;;;;5.99;100.00;92814.84;2106898;28;20460;-82
2022/04/13 02:43:19;;;;;;;3.15;2.10;;;;;;;5.91;100.00;92815.28;2116416;28;20023;-84
2022/04/13 02:44:20;;;;;;;2.88;2.20;;;;;;;5.87;100.00;92830.47;2105153;27;20472;-82
2022/04/13 02:45:21;;;;;;;2.15;1.95;;;;;;;5.88;100.00;92818.69;2105540;28;20016;-85
2022/04/13 02:46:22;;;;;;;2.83;2.10;;;;;;;5.86;100.00;92819.09;2100995;28;20016;-84
2022/04/13 02:47:23;;;;;;;4.15;2.33;;;;;;;5.85;100.00;92811.56;2096907;28;20073;-82
2022/04/13 02:48:25;;;;;;;5.78;2.33;;;;;;;5.85;100.00;92822.91;2098822;28;20036;-82
2022/04/13 02:49:26;;;;;;;3.65;2.40;;;;;;;5.87;100.00;92820.59;2101633;28;20022;-82
2022/04/13 02:50:27;;;;;;;3.22;2.35;;;;;;;5.89;100.00;92820.97;2105422;28;20023;-84
2022/04/13 02:51:28;;;;;;;5.70;2.38;;;;;;;5.90;100.00;92822.47;2105352;28;21168;-82
2022/04/13 02:52:29;;;;;;;2.28;1.73;;;;;;;5.95;100.00;92822.09;2114049;28;20023;-81
2022/04/13 02:53:31;;;;;;;4.05;2.33;;;;;;;5.84;100.00;92826.72;2116621;28;20027;-85
2022/04/13 02:54:32;;;;;;;4.68;2.60;;;;;;;5.77;100.00;92822.22;2099160;28;20115;-83
2022/04/13 02:55:33;;;;;;;4.60;2.67;;;;;;;5.75;100.00;92824.50;2111351;28;20020;-81
2022/04/13 02:56:34;;;;;;;6.57;2.85;;;;;;;5.72;100.00;92821.88;2110435;28;20024;-82
2022/04/13 02:57:36;;;;;;;3.38;2.15;;;;;;;5.71;100.00;92817.72;2111535;28;20016;-83
2022/04/13 02:58:37;;;;;;;3.42;2.40;;;;;;;5.70;100.00;92822.25;2099292;28;20230;-82
2022/04/13 02:59:46;;;;;;;2.38;2.17;;;;;;;5.77;100.00;92813.50;2101116;28;20103;-83
2022/04/13 03:00:47;;;;;;;3.90;2.40;;;;;;;5.78;100.00;92817.66;2109715;27;20112;-82
2022/04/13 03:01:49;;;;;;;3.65;2.42;;;;;;;5.85;100.00;92828.22;2108154;28;20074;-84
2022/04/13 03:02:50;;;;;;;4.65;2.40;;;;;;;5.89;100.00;92814.94;2109837;28;20185;-82
2022/04/13 03:03:51;;;;;;;2.42;2.03;;;;;;;5.84;100.00;92821.41;2111009;28;20023;-83
2022/04/13 03:04:52;;;;;;;4.38;2.67;;;;;;;5.92;100.00;92814.91;2118038;28;20023;-83
2022/04/13 03:05:53;;;;;;;5.03;2.42;;;;;;;5.84;100.00;92817.97;2115861;28;20050;-81
2022/04/13 03:06:54;;;;;;;3.20;2.53;;;;;;;5.83;100.00;92825.19;2105437;28;20035;-84
2022/04/13 03:07:55;;;;;;;3.78;2.55;;;;;;;5.82;100.00;92811.19;2105254;28;20020;-84
2022/04/13 03:08:57;;;;;;;4.97;3.28;;;;;;;5.77;100.00;92819.56;2107569;28;20052;-83
2022/04/13 03:09:59;;;;;;;5.60;2.53;;;;;;;5.77;100.00;92811.59;2101552;28;20024;-82
2022/04/13 03:11:01;;;;;;;4.07;2.30;;;;;;;5.70;100.00;92811.66;2104308;28;20024;-84
2022/04/13 03:12:02;;;;;;;4.03;2.80;;;;;;;5.85;100.00;92817.59;2102704;28;20035;-81
2022/04/13 03:13:03;;;;;;;3.83;2.40;;;;;;;5.87;100.00;92815.31;2111053;28;20367;-81
2022/04/13 03:14:05;;;;;;;4.60;2.60;;;;;;;5.94;100.00;92812.63;2113876;28;20035;-84
2022/04/13 03:15:06;;;;;;;2.92;2.58;;;;;;;5.85;100.00;92822.16;2105322;28;20031;-81
2022/04/13 03:16:07;;;;;;;3.15;2.13;;;;;;;5.86;100.00;92821.00;2106196;28;20074;-84
2022/04/13 03:17:08;;;;;;;4.40;2.20;;;;;;;5.80;100.00;92823.34;2104303;28;20074;-83
2022/04/13 03:18:09;;;;;;;3.97;2.42;;;;;;;5.74;100.00;92825.63;2098465;28;20413;-82
2022/04/13 03:19:10;;;;;;;2.30;2.10;;;;;;;5.66;100.00;92824.19;2098607;28;20120;-84
2022/04/13 03:20:13;;;;;;;2.30;2.10;;;;;;;5.65;100.00;92822.69;2098502;28;20804;-82
2022/04/13 03:21:14;;;;;;;2.58;2.05;;;;;;;5.63;100.00;92826.88;2110961;28;20024;-84
2022/04/13 03:22:15;;;;;;;6.03;2.13;;;;;;;5.71;100.00;92823.03;2098422;28;20107;-83
2022/04/13 03:23:16;;;;;;;9.75;2.50;;;;;;;5.67;100.00;92832.91;2098542;28;20036;-84
2022/04/13 03:24:26;;;;;;;3.47;2.00;;;;;;;5.54;100.00;92832.63;2097941;28;20047;-88
2022/04/13 03:25:27;;;;;;;4.85;2.33;;;;;;;5.51;100.00;92826.19;2106618;27;20150;-83
2022/04/13 03:26:28;;;;;;;4.45;2.03;;;;;;;5.58;100.00;92838.66;2106720;28;20661;-83
2022/04/13 03:27:29;;;;;;;5.65;2.42;;;;;;;5.51;100.00;92828.84;2106734;28;20023;-87
2022/04/13 03:28:30;;;;;;;4.45;2.17;;;;;;;5.45;100.00;92833.06;2106614;28;20028;-81
2022/04/13 03:29:34;;;;;;;4.82;2.00;;;;;;;5.48;100.00;92828.88;2115171;28;20064;-84
2022/04/13 03:30:35;;;;;;;5.30;2.10;;;;;;;5.59;100.00;92826.91;2105994;28;20419;-81
2022/04/13 03:31:36;;;;;;;2.80;2.17;;;;;;;5.51;100.00;92828.84;2097840;28;20040;-83
2022/04/13 03:32:38;;;;;;;5.07;1.88;;;;;;;5.50;100.00;92824.69;2096220;28;20112;-81
2022/04/13 03:33:39;;;;;;;4.47;2.13;;;;;;;5.40;100.00;92825.53;2106362;28;20874;-83
2022/04/13 03:34:40;;;;;;;4.05;2.33;;;;;;;5.36;100.00;92824.06;2093832;28;20029;-82
2022/04/13 03:35:41;;;;;;;2.85;2.17;;;;;;;5.46;100.00;92831.19;2094394;28;20027;-82
2022/04/13 03:36:42;;;;;;;4.85;2.03;;;;;;;5.43;100.00;92826.66;2097728;28;20025;-82
2022/04/13 03:37:43;;;;;;;3.70;2.17;;;;;;;5.42;100.00;92831.19;2098236;28;20024;-84
2022/04/13 03:38:44;;;;;;;4.03;2.35;;;;;;;5.41;100.00;92826.28;2098043;28;20024;-83
2022/04/13 03:39:45;;;;;;;3.97;2.38;;;;;;;5.38;100.00;92822.50;2098276;28;20098;-83
2022/04/13 03:40:46;;;;;;;4.53;2.97;;;;;;;5.42;100.00;92827.78;2098445;28;20067;-81
2022/04/13 03:41:47;;;;;;;3.17;2.10;;;;;;;5.39;100.00;92831.97;2101018;28;20016;-84
2022/04/13 03:42:48;;;;;;;4.88;2.20;;;;;;;5.39;100.00;92828.56;2098586;28;20460;-84
2022/04/13 03:43:48;;;;;;;6.13;2.33;;;;;;;5.36;100.00;92832.75;2098221;28;20024;-84
2022/04/13 03:44:49;;;;;;;4.05;2.38;;;;;;;5.32;100.00;92829.38;2106679;28;20044;-81
2022/04/13 03:45:50;;;;;;;4.40;2.05;;;;;;;5.38;100.00;92830.47;2106620;28;20673;-82
2022/04/13 03:46:51;;;;;;;3.60;2.20;;;;;;;5.37;100.00;92828.97;2113195;28;20018;-82
2022/04/13 03:47:52;;;;;;;2.85;2.17;;;;;;;5.46;100.00;92828.53;2114517;28;20043;-82
2022/04/13 03:48:53;;;;;;;8.25;2.78;;;;;;;5.44;100.00;92828.88;2106313;28;20022;-82
2022/04/13 03:49:54;;;;;;;3.58;2.20;;;;;;;5.48;100.00;92834.94;2114782;28;20486;-84
2022/04/13 03:50:57;;;;;;;3.17;2.40;;;;;;;5.49;100.00;92825.84;2112839;28;20054;-83
2022/04/13 03:51:58;;;;;;;4.13;2.58;;;;;;;5.40;100.00;92825.53;2114892;27;20080;-84
2022/04/13 03:52:59;;;;;;;3.97;2.22;;;;;;;5.39;100.00;92829.31;2096064;28;20033;-85
2022/04/13 03:54:00;;;;;;;4.20;2.70;;;;;;;5.51;100.00;92828.84;2097334;28;20032;-82
2022/04/13 03:55:04;;;;;;;4.70;2.42;;;;;;;5.62;100.00;92828.00;2098151;28;20054;-83
2022/04/13 03:56:04;;;;;;;5.95;2.30;;;;;;;5.59;100.00;92832.22;2107002;28;20070;-85
2022/04/13 03:57:06;;;;;;;3.85;1.98;;;;;;;5.54;100.00;92832.63;2098239;28;20052;-83
2022/04/13 03:58:07;;;;;;;5.50;2.25;;;;;;;5.68;100.00;92834.41;2098187;28;20026;-82
2022/04/13 03:59:08;;;;;;;4.65;2.25;;;;;;;5.75;100.00;92832.47;2106527;28;20077;-82
2022/04/13 04:00:09;;;;;;;4.95;2.05;;;;;;;5.72;100.00;92838.53;2102125;28;20030;-83
2022/04/13 04:01:11;;;;;;;4.13;2.25;;;;;;;5.62;100.00;92825.34;2104530;27;20464;-84
2022/04/13 04:02:14;;;;;;;5.05;2.13;;;;;;;5.39;100.00;92826.66;2115112;27;20019;-81
2022/04/13 04:03:15;;;;;;;7.63;2.33;;;;;;;5.28;100.00;92826.75;2106760;28;20012;-83
2022/04/13 04:04:16;;;;;;;7.68;2.22;;;;;;;5.37;100.00;92825.56;2106546;28;20031;-84
2022/04/13 04:05:17;;;;;;;3.85;2.03;;;;;;;5.31;100.00;92833.16;2106325;28;20035;-83
2022/04/13 04:06:18;;;;;;;5.45;2.15;;;;;;;5.16;100.00;92829.84;2098170;28;20409;-84
2022/04/13 04:07:19;;;;;;;4.22;2.15;;;;;;;5.15;100.00;92832.88;2100362;28;20028;-83
2022/04/13 04:08:20;;;;;;;3.63;2.28;;;;;;;5.24;100.00;92826.00;2106359;28;20040;-84
2022/04/13 04:09:21;;;;;;;4.65;2.30;;;;;;;5.23;100.00;92829.06;2106302;28;20085;-83
2022/04/13 04:10:22;;;;;;;4.93;2.08;;;;;;;5.20;100.00;92827.19;2112987;28;20015;-85
2022/04/13 04:11:23;;;;;;;2.65;1.98;;;;;;;5.28;100.00;92831.28;2104083;28;20016;-84
2022/04/13 04:12:24;;;;;;;4.72;1.95;;;;;;;5.27;100.00;92824.50;2114172;27;20044;-83
2022/04/13 04:13:25;;;;;;;2.40;1.85;;;;;;;5.25;100.00;92829.41;2112699;28;20503;-82
2022/04/13 04:14:26;;;;;;;5.38;2.35;;;;;;;5.20;100.00;92832.47;2106495;28;20024;-82
2022/04/13 04:15:27;;;;;;;4.97;2.10;;;;;;;5.12;100.00;92826.47;2106154;28;20035;-81
2022/04/13 04:16:28;;;;;;;5.53;2.00;;;;;;;5.09;100.00;92826.47;2114538;28;20107;-82
2022/04/13 04:17:29;;;;;;;4.13;2.42;;;;;;;5.04;100.00;92831.03;2105563;28;20101;-84
2022/04/13 04:18:31;;;;;;;4.43;2.03;;;;;;;5.10;100.00;92830.66;2097930;28;20030;-82
2022/04/13 04:19:32;;;;;;;3.45;2.13;;;;;;;5.12;100.00;92829.09;2105714;27;20027;-82
2022/04/13 04:20:33;;;;;;;6.00;2.40;;;;;;;5.19;100.00;92828.31;2114738;28;20072;-83
2022/04/13 04:21:34;;;;;;;2.13;1.75;;;;;;;5.17;100.00;92826.03;2105326;28;20039;-84
2022/04/13 04:22:35;;;;;;;3.47;2.08;;;;;;;5.07;100.00;92828.78;2106535;28;20024;-83
2022/04/13 04:23:36;;;;;;;3.95;2.03;;;;;;;5.07;100.00;92826.88;2106173;28;20103;-83
2022/04/13 04:24:37;;;;;;;2.60;1.92;;;;;;;4.95;100.00;92827.31;2105923;28;20024;-83
2022/04/13 04:25:38;;;;;;;4.25;2.00;;;;;;;5.01;100.00;92831.09;2106306;28;20012;-81
2022/04/13 04:26:39;;;;;;;4.97;2.58;;;;;;;4.99;100.00;92833.34;2105959;28;20024;-84
2022/04/13 04:27:41;;;;;;;3.72;2.10;;;;;;;4.95;100.00;92827.31;2104908;27;20422;-84
2022/04/13 04:28:42;;;;;;;4.05;2.20;;;;;;;4.94;100.00;92825.81;2106077;28;20105;-82
2022/04/13 04:29:43;;;;;;;4.25;2.00;;;;;;;4.95;100.00;92830.72;2096489;28;20017;-84
2022/04/13 04:30:44;;;;;;;3.03;2.40;;;;;;;4.92;100.00;92823.56;2097876;28;20489;-84
2022/04/13 04:31:53;;;;;;;5.82;2.63;;;;;;;5.00;100.00;92829.56;2104914;28;20024;-81
2022/04/13 04:32:54;;;;;;;3.75;1.70;;;;;;;5.00;100.00;92827.69;2115336;27;20107;-82
2022/04/13 04:33:54;;;;;;;3.38;1.90;;;;;;;5.03;100.00;92816.28;2114390;28;20019;-81
2022/04/13 04:34:55;;;;;;;4.30;2.40;;;;;;;4.96;100.00;92820.88;2114814;28;20024;-83
2022/04/13 04:35:57;;;;;;;4.72;2.22;;;;;;;5.11;100.00;92819.66;2097426;28;20052;-83
2022/04/13 04:36:58;;;;;;;4.03;2.13;;;;;;;4.99;100.00;92818.22;2106296;28;20559;-83
2022/04/13 04:37:59;;;;;;;4.22;2.03;;;;;;;4.90;100.00;92828.47;2106291;28;20023;-83
2022/04/13 04:39:00;;;;;;;2.85;2.17;;;;;;;4.83;100.00;92823.22;2106360;28;20065;-84
2022/04/13 04:40:02;;;;;;;4.57;2.20;;;;;;;4.89;100.00;92823.56;2106261;28;20073;-83
2022/04/13 04:41:03;;;;;;;6.35;2.25;;;;;;;4.92;100.00;92826.22;2097898;28;20439;-83
2022/04/13 04:42:06;;;;;;;2.40;1.60;;;;;;;4.90;100.00;92823.19;2093526;28;20016;-82
2022/04/13 04:43:07;;;;;;;7.38;2.00;;;;;;;4.85;100.00;92820.94;2094966;28;20047;-84
2022/04/13 04:44:09;;;;;;;3.85;2.13;;;;;;;4.84;100.00;92822.09;2103160;28;20840;-83
2022/04/13 04:45:12;;;;;;;3.25;2.08;;;;;;;4.86;100.00;92824.34;2094880;28;20501;-83
2022/04/13 04:46:13;;;;;;;4.53;2.22;;;;;;;4.77;100.00;92822.09;2102576;28;20032;-82
2022/04/13 04:47:14;;;;;;;4.97;2.40;;;;;;;4.80;100.00;92824.75;2098313;28;20024;-84
2022/04/13 04:48:15;;;;;;;5.15;2.20;;;;;;;4.73;100.00;92824.00;2095465;28;20031;-82
2022/04/13 04:49:16;;;;;;;3.78;1.83;;;;;;;4.77;100.00;92822.09;2101702;28;20043;-82
2022/04/13 04:50:19;;;;;;;5.20;2.50;;;;;;;4.74;100.00;92823.66;2094978;28;20036;-83
2022/04/13 04:51:23;;;;;;;3.35;1.98;;;;;;;4.75;100.00;92816.47;2113358;27;20108;-84